Terminal Aerodrome Forecast
Issued by NWS Billings, MT

Home | Current Version | Previous Version | Text Only | Print | Product List | Glossary On
Versions: 1 2 3 4 5 6 7 8 9 10 11 12 13 14 15 16 17 18 19 20 21 22 23 24 25 26 27 28 29 30 31
000
FTUS45 KBYZ 110812 AAB
TAFBIL
TAF AMD
KBIL 110812Z 1108/1206 36005KT 2SM BR BKN002
      TEMPO 1108/1111 1/4SM FZFG VV001
     FM111200 VRB05KT P6SM VCFG SCT002 BKN100
     FM111400 24011KT P6SM BKN060=

USA.gov is the U.S. government's official web portal to all federal, state and local government web resources and services.